KPAE/PAE METAR and TAF weather

Enter ICAO airport designator
Station Type Date Time Source
KPAE METAR 2018/12/11 17:53 UTC NOAA

KPAE 111753Z 13016G23KT 1 1/2SM BR OVC002 07/06 A2982 RMK AO2 RAB13E40 SLP101 P0000 60001 T00670061 10067 20056 58029


Station Type Date Time Source
KPAE Decoded METAR 2018/12/11 17:53 UTC NOAA

EVERETT SNOHOMISH COUNTY, WA, United States (KPAE) 47-55N 122-17W 180M
Dec 11, 2018 - 12:53 PM EST / 2018.12.11 1753 UTC
Wind: from the SE (130 degrees) at 18 MPH (16 KT) gusting to 26 MPH (23 KT):0
Visibility: 1 1/2 mile(s):0
Sky conditions: overcast
Weather: mist
Precipitation last hour: A trace
Temperature: 44.1 F (6.7 C)
Dew Point: 43.0 F (6.1 C)
Relative Humidity: 95%
Pressure (altimeter): 29.82 in. Hg (1009 hPa)
Pressure tendency: 0.09 inches (2.9 hPa) lower than three hours ago
ob: KPAE 111753Z 13016G23KT 1 1/2SM BR OVC002 07/06 A2982 RMK AO2 RAB13E40 SLP101 P0000 60001 T00670061 10067 20056 58029
cycle: 18

Station Type Date Time Source
KPAE TAF 2018/12/11 18:48 UTC NOAA

TAF KPAE 111746Z 1118/1218 13012G20KT 6SM -RA OVC005 WS020/18030KT
TEMPO 1118/1121 2SM BR OVC003
FM112100 19020G31KT 5SM RA BR OVC007 WS020/18030KT
FM120300 21015G22KT P6SM -SHRA BKN015
FM121200 24015KT P6SM VCSH BKN030
FM121700 20012KT P6SM OVC035


Example: see airport list